createdAt,value
2022-08-14T00:04:44.889Z,6.10
2022-08-14T00:10:01.456Z,5.65
2022-08-14T00:14:55.204Z,6.12
2022-08-14T00:19:59.217Z,6.00
2022-08-14T00:25:05.349Z,6.12
2022-08-14T00:30:11.171Z,5.96
2022-08-14T00:35:16.804Z,6.25
2022-08-14T00:40:32.944Z,6.08
2022-08-14T00:45:31.132Z,6.66
2022-08-14T00:50:34.690Z,5.92
2022-08-14T00:55:40.333Z,5.94
2022-08-14T01:00:51.079Z,5.81
2022-08-14T01:05:52.449Z,6.03
2022-08-14T01:10:58.413Z,6.14
2022-08-14T01:16:04.166Z,5.69
2022-08-14T01:21:11.248Z,5.65
2022-08-14T01:26:34.340Z,6.04
2022-08-14T01:31:22.002Z,5.82
2022-08-14T01:36:28.177Z,5.85
2022-08-14T01:41:34.480Z,5.94
2022-08-14T01:46:40.203Z,5.86
2022-08-14T01:51:46.423Z,5.64
2022-08-14T01:56:55.610Z,5.98
2022-08-14T02:01:59.305Z,5.72
2022-08-14T02:07:05.616Z,5.33
2022-08-14T02:12:11.157Z,5.27
2022-08-14T02:17:17.426Z,5.50
2022-08-14T02:22:32.610Z,5.48
2022-08-14T02:28:22.235Z,5.52
2022-08-14T02:32:37.253Z,5.85
2022-08-14T02:37:48.408Z,5.78
2022-08-14T02:42:54.599Z,5.58
2022-08-14T02:47:53.900Z,5.62
2022-08-14T02:53:07.528Z,5.71
2022-08-14T02:58:05.726Z,5.97
2022-08-14T03:03:08.816Z,5.55
2022-08-14T03:08:15.164Z,5.85
2022-08-14T03:13:21.659Z,6.11
2022-08-14T03:18:31.614Z,5.90
2022-08-14T03:23:31.793Z,5.87
2022-08-14T03:28:39.253Z,5.91
2022-08-14T03:33:43.956Z,6.08
2022-08-14T03:39:11.772Z,5.88
2022-08-14T03:43:57.135Z,5.87
2022-08-14T03:49:01.554Z,5.35
2022-08-14T03:54:07.473Z,5.83
2022-08-14T03:59:17.709Z,5.76
2022-08-14T04:04:19.506Z,6.26
2022-08-14T04:09:26.939Z,5.54
2022-08-14T04:14:31.445Z,5.72
2022-08-14T04:19:37.081Z,5.92
2022-08-14T04:24:43.477Z,5.76
2022-08-14T04:29:49.601Z,5.97
2022-08-14T04:34:55.467Z,6.35
2022-08-14T04:40:03.135Z,6.28
2022-08-14T04:45:07.505Z,6.38
2022-08-14T04:50:13.661Z,6.37
2022-08-14T04:55:19.465Z,6.38
2022-08-14T05:00:25.171Z,6.17
2022-08-14T05:05:32.228Z,6.35
2022-08-14T05:10:39.088Z,6.44
2022-08-14T05:15:42.981Z,6.56
2022-08-14T05:21:57.724Z,6.57
2022-08-14T05:25:54.584Z,6.69
2022-08-14T05:31:00.696Z,6.41
2022-08-14T05:36:06.976Z,6.94
2022-08-14T05:41:12.662Z,6.34
2022-08-14T05:46:18.528Z,6.80
2022-08-14T05:51:24.197Z,6.88
2022-08-14T05:56:30.502Z,6.55
2022-08-14T06:01:36.891Z,6.87
2022-08-14T06:06:43.153Z,7.17
2022-08-14T06:11:49.848Z,6.51
2022-08-14T06:16:55.037Z,6.74
2022-08-14T06:22:02.186Z,6.97
2022-08-14T06:27:10.671Z,6.92
2022-08-14T06:32:36.934Z,6.48
2022-08-14T06:37:18.624Z,6.52
2022-08-14T06:42:32.727Z,7.02
2022-08-14T06:47:30.184Z,6.65
2022-08-14T06:52:36.625Z,7.10
2022-08-14T06:57:43.037Z,7.52
2022-08-14T07:02:49.272Z,8.16
2022-08-14T07:07:55.463Z,7.84
2022-08-14T07:13:04.379Z,7.79
2022-08-14T07:18:08.699Z,7.70
2022-08-14T07:23:20.543Z,8.27
2022-08-14T07:28:20.561Z,7.65
2022-08-14T07:33:29.991Z,7.52
2022-08-14T07:38:37.519Z,7.62
2022-08-14T07:43:36.735Z,7.35
2022-08-14T07:48:42.552Z,7.21
2022-08-14T07:53:48.384Z,7.01
2022-08-14T07:58:54.197Z,7.11
2022-08-14T08:04:00.169Z,7.20
2022-08-14T08:09:05.661Z,7.08
2022-08-14T08:14:17.327Z,7.06
2022-08-14T08:19:17.628Z,6.41
2022-08-14T08:24:23.840Z,6.82
2022-08-14T08:29:30.597Z,6.51
2022-08-14T08:34:36.809Z,6.64
2022-08-14T08:40:01.692Z,6.62
2022-08-14T08:44:48.849Z,6.55
2022-08-14T08:49:59.633Z,6.20
2022-08-14T08:55:04.350Z,6.31
2022-08-14T09:00:09.777Z,6.47
2022-08-14T09:05:12.384Z,6.33
2022-08-14T09:10:22.173Z,6.60
2022-08-14T09:15:24.603Z,6.90
2022-08-14T09:20:31.228Z,6.54
2022-08-14T09:26:00.128Z,6.95
2022-08-14T09:30:43.104Z,6.54
2022-08-14T09:35:48.780Z,7.05
2022-08-14T09:40:54.692Z,9.49
2022-08-14T09:46:02.492Z,7.16
2022-08-14T09:56:12.357Z,7.01
2022-08-14T10:01:18.297Z,6.75
2022-08-14T10:06:24.433Z,6.90
2022-08-14T10:11:35.012Z,7.01
2022-08-14T10:16:37.208Z,6.58
2022-08-14T10:21:58.486Z,6.25
2022-08-14T10:26:48.753Z,6.29
2022-08-14T10:31:54.700Z,5.98
2022-08-14T10:37:02.575Z,6.45
2022-08-14T10:42:16.283Z,6.54
2022-08-14T10:47:39.514Z,6.45
2022-08-14T10:52:17.785Z,6.60
2022-08-14T10:57:23.423Z,6.82
2022-08-14T11:02:44.535Z,6.62
2022-08-14T11:07:35.117Z,6.32
2022-08-14T11:12:42.306Z,6.55
2022-08-14T11:17:48.411Z,6.85
2022-08-14T11:22:57.743Z,6.76
2022-08-14T11:28:00.258Z,6.98
2022-08-14T11:33:07.248Z,6.88
2022-08-14T11:38:14.296Z,6.49
2022-08-14T11:43:29.184Z,6.81
2022-08-14T11:49:03.465Z,6.91
2022-08-14T11:53:31.701Z,6.72
2022-08-14T11:58:37.872Z,6.65
2022-08-14T12:03:46.599Z,6.82
2022-08-14T12:08:52.790Z,6.39
2022-08-14T12:13:56.649Z,6.55
2022-08-14T12:19:03.012Z,6.60
2022-08-14T12:24:09.585Z,6.18
2022-08-14T12:29:15.341Z,6.64
2022-08-14T12:34:22.935Z,6.41
2022-08-14T12:39:27.344Z,6.31
2022-08-14T12:44:33.738Z,6.08
2022-08-14T12:49:39.833Z,6.01
2022-08-14T12:55:01.604Z,6.22
2022-08-14T12:59:52.216Z,5.74
2022-08-14T13:04:58.512Z,6.27
2022-08-14T13:10:47.785Z,5.98
2022-08-14T13:15:10.440Z,5.92
2022-08-14T13:20:24.756Z,6.40
2022-08-14T13:25:22.386Z,5.87
2022-08-14T13:30:28.517Z,6.12
2022-08-14T13:35:34.738Z,5.89
2022-08-14T13:40:40.988Z,6.08
2022-08-14T13:46:00.962Z,5.79
2022-08-14T13:50:52.620Z,6.15
2022-08-14T13:55:59.121Z,5.88
2022-08-14T14:01:05.533Z,6.21
2022-08-14T14:06:12.525Z,6.20
2022-08-14T14:11:18.312Z,5.96
2022-08-14T14:16:30.017Z,6.18
2022-08-14T14:21:31.046Z,6.22
2022-08-14T14:26:36.868Z,6.19
2022-08-14T14:31:42.995Z,6.29
2022-08-14T14:36:50.103Z,6.13
2022-08-14T14:41:56.380Z,6.53
2022-08-14T14:47:01.484Z,6.65
2022-08-14T14:52:07.624Z,6.27
2022-08-14T14:57:13.996Z,6.28
2022-08-14T15:02:20.273Z,6.22
2022-08-14T15:07:26.727Z,6.18
2022-08-14T15:12:55.546Z,6.22
2022-08-14T15:17:41.366Z,6.26
2022-08-14T15:22:51.102Z,6.13
2022-08-14T15:27:50.333Z,6.09
2022-08-14T15:32:56.201Z,6.37
2022-08-14T15:38:03.349Z,6.54
2022-08-14T15:43:09.452Z,5.84
2022-08-14T15:48:22.495Z,5.74
2022-08-14T15:53:22.430Z,6.73
2022-08-14T15:58:28.836Z,6.18
2022-08-14T16:03:39.900Z,6.18
2022-08-14T16:08:40.942Z,6.46
2022-08-14T16:13:47.747Z,6.24
2022-08-14T16:18:52.903Z,6.24
2022-08-14T16:23:59.150Z,6.15
2022-08-14T16:29:05.463Z,6.08
2022-08-14T16:34:45.014Z,6.11
2022-08-14T16:39:18.353Z,6.76
2022-08-14T16:44:33.711Z,6.16
2022-08-14T16:50:03.404Z,5.37
2022-08-14T16:54:44.665Z,5.64
2022-08-14T16:59:52.597Z,5.94
2022-08-14T17:04:49.266Z,5.71
2022-08-14T17:09:53.178Z,5.88
2022-08-14T17:14:58.891Z,5.57
2022-08-14T17:20:25.066Z,5.72
2022-08-14T17:25:10.970Z,5.76
2022-08-14T17:30:31.953Z,5.48
2022-08-14T17:35:23.450Z,5.68
2022-08-14T17:40:29.569Z,5.93
2022-08-14T17:45:39.113Z,5.87
2022-08-14T17:50:59.725Z,6.45
2022-08-14T17:56:00.957Z,6.02
2022-08-14T18:00:53.711Z,6.09
2022-08-14T18:06:09.788Z,6.17
2022-08-14T18:11:05.693Z,6.34
2022-08-14T18:16:19.641Z,6.14
2022-08-14T18:21:40.729Z,6.18
2022-08-14T18:26:37.437Z,5.74
2022-08-14T18:31:42.131Z,5.87
2022-08-14T18:36:49.035Z,6.34
2022-08-14T18:41:42.992Z,6.31
2022-08-14T18:47:00.778Z,6.62
2022-08-14T18:51:55.018Z,6.50
2022-08-14T18:57:00.973Z,6.31
2022-08-14T19:02:20.288Z,6.53
2022-08-14T19:07:16.187Z,6.38
2022-08-14T19:12:28.099Z,6.41
2022-08-14T19:17:25.166Z,6.33
2022-08-14T19:22:30.999Z,6.73
2022-08-14T19:27:37.839Z,6.56
2022-08-14T19:32:42.948Z,6.66
2022-08-14T19:37:49.595Z,7.25
2022-08-14T19:42:55.473Z,6.77
2022-08-14T19:48:01.242Z,7.37
2022-08-14T19:53:11.086Z,6.68
2022-08-14T19:58:13.245Z,6.96
2022-08-14T20:03:24.037Z,7.35
2022-08-14T20:09:05.560Z,7.11
2022-08-14T20:13:32.527Z,7.31
2022-08-14T20:18:50.217Z,6.96
2022-08-14T20:23:48.164Z,6.93
2022-08-14T20:28:52.450Z,7.35
2022-08-14T20:33:58.637Z,7.79
2022-08-14T20:39:04.801Z,7.48
2022-08-14T20:44:11.920Z,7.42
2022-08-14T20:49:16.386Z,7.66
2022-08-14T20:54:34.219Z,7.74
2022-08-14T20:59:28.816Z,7.74
2022-08-14T21:04:34.622Z,7.70
2022-08-14T21:09:43.730Z,7.51
2022-08-14T21:14:46.662Z,7.59
2022-08-14T21:19:52.281Z,7.71
2022-08-14T21:25:02.846Z,7.48
2022-08-14T21:30:04.615Z,7.91
2022-08-14T21:35:10.374Z,7.63
2022-08-14T21:40:40.609Z,7.96
2022-08-14T21:45:22.666Z,8.06
2022-08-14T21:50:38.838Z,7.65
2022-08-14T21:55:34.723Z,8.11
2022-08-14T22:00:42.501Z,7.95
2022-08-14T22:05:45.982Z,7.98
2022-08-14T22:10:51.776Z,8.36
2022-08-14T22:15:59.938Z,8.64
2022-08-14T22:21:05.890Z,7.94
2022-08-14T22:26:09.405Z,7.64
2022-08-14T22:31:22.041Z,7.73
2022-08-14T22:36:25.387Z,8.00
2022-08-14T22:41:32.630Z,7.32
2022-08-14T22:46:32.749Z,7.16
2022-08-14T22:51:40.677Z,7.04
2022-08-14T22:56:44.811Z,7.16
2022-08-14T23:01:56.832Z,6.84
2022-08-14T23:07:03.058Z,6.64
2022-08-14T23:12:02.030Z,6.84
2022-08-14T23:17:08.427Z,6.43
2022-08-14T23:22:16.846Z,6.87
2022-08-14T23:27:21.003Z,6.41
2022-08-14T23:32:25.695Z,6.50
2022-08-14T23:37:31.936Z,6.56
2022-08-14T23:42:40.149Z,6.80
2022-08-14T23:47:51.667Z,6.25
2022-08-14T23:53:07.089Z,6.45
2022-08-14T23:57:59.201Z,6.88
